Time;durP1;ratioP1;P1;durP2;ratioP2;P2;SDS_P1;SDS_P2;PMS_P1;PMS_P2;Temp;Humidity;BMP_temperature;BMP_pressure;BME280_temperature;BME280_humidity;BME280_pressure;Samples;Min_cycle;Max_cycle;Signal;HPM_P1;HPM_P2
2023/07/05 00:00:38;;;;;;;;;7.67;7.67;;;;;19.27;59.85;100640.47;5077244;28;45888;-67
2023/07/05 00:03:04;;;;;;;;;10.67;9.00;;;;;19.29;60.02;100638.41;5076979;28;49139;-66
2023/07/05 00:05:29;;;;;;;;;12.67;8.67;;;;;19.15;59.65;100637.53;5077015;28;46940;-68
2023/07/05 00:07:55;;;;;;;;;10.67;7.67;;;;;19.11;60.05;100647.06;5076948;28;45415;-68
2023/07/05 00:10:20;;;;;;;;;10.33;9.33;;;;;19.10;60.36;100650.78;5080246;28;45282;-67
2023/07/05 00:12:46;;;;;;;;;7.67;7.00;;;;;19.03;60.23;100656.16;5080764;27;45792;-66
2023/07/05 00:15:11;;;;;;;;;11.33;9.00;;;;;18.84;60.14;100640.75;5080000;28;60133;-68
2023/07/05 00:17:37;;;;;;;;;10.33;7.00;;;;;18.93;60.13;100663.78;5059860;28;45531;-67
2023/07/05 00:20:09;;;;;;;;;12.00;8.67;;;;;18.73;60.10;100644.00;5062276;28;45504;-68
2023/07/05 00:22:34;;;;;;;;;12.00;8.00;;;;;18.83;60.45;100666.03;5080661;28;45342;-67
2023/07/05 00:25:02;;;;;;;;;11.33;9.33;;;;;18.76;60.64;100686.69;5079972;28;46415;-67
2023/07/05 00:27:27;;;;;;;;;8.67;8.67;;;;;18.72;60.24;100677.34;5080192;28;45236;-67
2023/07/05 00:29:55;;;;;;;;;10.33;8.00;;;;;18.58;60.61;100651.31;5080424;27;45457;-68
2023/07/05 00:32:21;;;;;;;;;59.75;45.50;;;;;18.52;60.27;100686.09;5080608;27;45371;-67
2023/07/05 00:34:47;;;;;;;;;12.00;9.00;;;;;18.24;60.45;100650.31;5061630;28;48593;-67
2023/07/05 00:37:13;;;;;;;;;10.00;9.33;;;;;18.41;60.16;100686.63;5080165;28;45411;-68
2023/07/05 00:39:38;;;;;;;;;10.00;10.00;;;;;18.31;60.17;100678.09;5079983;27;45335;-67
2023/07/05 00:42:05;;;;;;;;;10.67;8.67;;;;;18.37;60.33;100688.06;5080320;27;45656;-66
2023/07/05 00:44:30;;;;;;;;;10.00;10.00;;;;;18.32;60.34;100700.44;5080098;27;46865;-66
2023/07/05 00:47:08;;;;;;;;;9.00;8.00;;;;;17.93;60.00;100639.91;5079365;27;45475;-68
2023/07/05 00:49:35;;;;;;;;;11.33;10.00;;;;;18.20;60.58;100702.81;5045056;28;45543;-67
2023/07/05 00:52:07;;;;;;;;;9.00;6.33;;;;;18.19;60.28;100706.53;5079898;27;45335;-68
2023/07/05 00:54:39;;;;;;;;;9.33;7.00;;;;;18.19;60.12;100709.25;5079577;27;46850;-67
2023/07/05 00:57:09;;;;;;;;;12.33;8.33;;;;;18.22;60.00;100711.56;5079496;27;45317;-67
2023/07/05 00:59:41;;;;;;;;;7.67;7.33;;;;;18.19;59.79;100715.44;5061680;28;45385;-66
2023/07/05 01:02:07;;;;;;;;;12.00;11.00;;;;;17.82;59.83;100652.03;5061694;28;45643;-67
2023/07/05 01:04:34;;;;;;;;;7.00;7.00;;;;;18.08;59.95;100731.31;5061194;28;47629;-67
2023/07/05 01:06:59;;;;;;;;;6.33;5.00;;;;;18.04;59.38;100733.56;5079762;27;45268;-66
2023/07/05 01:09:26;;;;;;;;;11.33;10.00;;;;;17.93;59.88;100704.47;5079623;27;45491;-67
2023/07/05 01:12:06;;;;;;;;;10.33;7.67;;;;;18.13;60.15;100747.69;5061993;28;45525;-68
2023/07/05 01:15:01;;;;;;;;;8.33;8.33;;;;;18.13;59.74;100750.38;5079423;27;46835;-67
2023/07/05 01:17:29;;;;;;;;;8.33;6.67;;;;;18.14;59.35;100749.34;5065419;27;45484;-68
2023/07/05 01:20:00;;;;;;;;;11.67;9.33;;;;;18.09;59.05;100754.50;5078977;28;45277;-67
2023/07/05 01:23:10;;;;;;;;;7.00;7.00;;;;;18.00;59.27;100750.25;5079886;28;45221;-67
2023/07/05 01:26:09;;;;;;;;;8.00;8.00;;;;;17.99;59.87;100749.41;5049873;28;45361;-67
2023/07/05 01:28:37;;;;;;;;;10.67;8.00;;;;;17.97;59.79;100742.56;5079402;28;45260;-67
2023/07/05 01:31:23;;;;;;;;;6.00;6.00;;;;;17.89;59.79;100752.44;5079724;27;45262;-67
2023/07/05 01:34:01;;;;;;;;;6.33;6.33;;;;;17.42;59.48;100677.66;5079675;27;45484;-69
2023/07/05 01:36:29;;;;;;;;;7.00;6.00;;;;;17.79;59.35;100746.53;5078434;28;46998;-67
2023/07/05 01:38:54;;;;;;;;;9.33;7.00;;;;;17.43;59.29;100691.94;5079088;27;45341;-67
2023/07/05 01:41:22;;;;;;;;;10.33;7.67;;;;;17.43;59.90;100719.66;5079495;27;45392;-67
2023/07/05 01:43:48;;;;;;;;;6.33;5.33;;;;;17.38;59.95;100730.09;5079390;28;45585;-67
2023/07/05 01:46:26;;;;;;;;;6.00;4.67;;;;;17.25;60.19;100722.75;5079145;28;45758;-67
2023/07/05 01:48:59;;;;;;;;;8.33;6.00;;;;;17.44;60.33;100755.41;5079055;27;45757;-68
2023/07/05 01:51:39;;;;;;;;;6.33;5.00;;;;;17.47;60.10;100755.03;5079195;28;45312;-68
2023/07/05 01:54:10;;;;;;;;;5.33;4.33;;;;;17.40;60.02;100759.47;5079170;27;45365;-67
2023/07/05 01:57:04;;;;;;;;;5.67;5.67;;;;;17.42;59.74;100768.19;5060344;28;47482;-68
2023/07/05 01:59:46;;;;;;;;;9.33;5.33;;;;;17.44;58.82;100771.53;5079009;28;45289;-67
2023/07/05 02:02:14;;;;;;;;;5.33;4.33;;;;;17.51;58.55;100775.13;5079098;27;45349;-66
2023/07/05 02:04:41;;;;;;;;;7.00;6.33;;;;;17.30;58.52;100739.13;5079296;27;45470;-66
2023/07/05 02:07:07;;;;;;;;;4.67;4.67;;;;;17.46;58.18;100764.13;5078595;27;46811;-66
2023/07/05 02:09:37;;;;;;;;;4.00;4.00;;;;;17.61;57.60;100789.94;5078510;27;46358;-66
2023/07/05 02:12:04;;;;;;;;;3.00;3.00;;;;;17.64;57.62;100784.19;5079086;28;45500;-67
2023/07/05 02:14:30;;;;;;;;;5.00;2.67;;;;;17.61;56.84;100799.84;5079021;28;45518;-67
2023/07/05 02:16:55;;;;;;;;;3.00;3.00;;;;;17.48;56.88;100775.53;5059802;28;46906;-68
2023/07/05 02:19:20;;;;;;;;;5.00;3.67;;;;;17.50;57.14;100786.91;5060447;28;45463;-67
2023/07/05 02:21:46;;;;;;;;;2.67;2.67;;;;;17.46;56.78;100783.78;5078722;27;45399;-68
2023/07/05 02:24:11;;;;;;;;;3.67;3.00;;;;;17.42;57.33;100795.06;5078694;28;45518;-67
2023/07/05 02:26:37;;;;;;;;;3.00;1.67;;;;;17.32;57.29;100790.00;5078708;27;45547;-67
2023/07/05 02:29:02;;;;;;;;;2.00;2.00;;;;;17.33;57.51;100787.13;5078672;27;45371;-67
2023/07/05 02:31:29;;;;;;;;;5.00;5.00;;;;;16.93;57.20;100723.13;5077852;27;45678;-68
2023/07/05 02:33:54;;;;;;;;;3.00;2.67;;;;;17.03;57.13;100742.50;5078820;27;45485;-68
2023/07/05 02:36:19;;;;;;;;;4.00;3.00;;;;;17.34;57.50;100799.53;5078333;27;45600;-67
2023/07/05 02:38:45;;;;;;;;;3.00;2.67;;;;;17.29;57.26;100804.63;5060161;28;45968;-66
2023/07/05 02:41:10;;;;;;;;;4.67;3.67;;;;;17.01;57.78;100771.38;5078424;28;45335;-66
2023/07/05 02:43:36;;;;;;;;;1.67;1.67;;;;;17.17;57.74;100807.97;5078539;28;46652;-66
2023/07/05 02:46:02;;;;;;;;;3.33;2.00;;;;;17.16;57.75;100822.41;5078322;28;45674;-67
2023/07/05 02:48:27;;;;;;;;;3.33;3.33;;;;;17.13;58.29;100820.94;5077853;28;45216;-66
2023/07/05 02:50:53;;;;;;;;;3.00;3.00;;;;;17.10;58.37;100820.47;5078278;28;45201;-67
2023/07/05 02:53:18;;;;;;;;;1.00;1.00;;;;;16.86;58.27;100789.34;5078183;28;45449;-67
2023/07/05 02:55:44;;;;;;;;;4.00;4.00;;;;;16.80;58.05;100779.31;5077905;27;45475;-67
2023/07/05 02:58:09;;;;;;;;;2.33;1.33;;;;;17.07;58.03;100837.81;5078117;27;45472;-67
2023/07/05 03:00:36;;;;;;;;;3.67;3.67;;;;;17.02;58.24;100833.00;5060089;28;45686;-67
2023/07/05 03:03:02;;;;;;;;;2.67;2.00;;;;;17.05;58.30;100834.47;5078461;28;45320;-68
2023/07/05 03:05:27;;;;;;;;;4.00;3.00;;;;;17.10;58.16;100842.81;5077823;28;45761;-66
2023/07/05 03:07:53;;;;;;;;;3.33;2.33;;;;;17.07;58.12;100843.19;5077504;27;55105;-67
2023/07/05 03:10:18;;;;;;;;;1.00;1.00;;;;;17.02;58.18;100842.91;5077881;28;45553;-67
2023/07/05 03:12:43;;;;;;;;;2.33;1.00;;;;;16.82;58.09;100805.00;5078269;27;45537;-67
2023/07/05 03:15:09;;;;;;;;;3.67;2.00;;;;;16.97;58.28;100842.59;5077280;28;55344;-67
2023/07/05 03:17:34;;;;;;;;;3.00;3.00;;;;;16.96;58.04;100847.13;5077414;27;45465;-67
2023/07/05 03:20:00;;;;;;;;;2.33;2.33;;;;;16.90;58.32;100849.72;5077950;28;45466;-68
2023/07/05 03:22:26;;;;;;;;;1.67;1.67;;;;;16.74;57.97;100837.28;5077902;28;45724;-68
2023/07/05 03:24:53;;;;;;;;;0.33;0.33;;;;;16.80;58.43;100862.56;5077493;28;45667;-68
2023/07/05 03:27:19;;;;;;;;;9.00;3.00;;;;;16.68;58.10;100852.25;5077658;28;46252;-68
2023/07/05 03:29:44;;;;;;;;;3.00;3.00;;;;;16.66;58.37;100857.00;5078013;28;45285;-68
2023/07/05 03:32:10;;;;;;;;;1.00;1.00;;;;;16.60;58.46;100849.59;5077960;27;45435;-68
2023/07/05 03:34:36;;;;;;;;;2.33;1.00;;;;;16.07;58.83;100784.31;5059088;28;47587;-68
2023/07/05 03:37:01;;;;;;;;;3.33;2.00;;;;;16.55;58.91;100868.09;5077577;28;45644;-67
2023/07/05 03:39:26;;;;;;;;;3.00;1.67;;;;;16.55;59.08;100881.53;5077284;28;45264;-66
2023/07/05 03:41:52;;;;;;;;;3.00;2.33;;;;;16.19;59.04;100808.00;5077966;27;45272;-66
2023/07/05 03:44:21;;;;;;;;;3.00;3.00;;;;;16.55;59.03;100880.69;5077072;27;48075;-67
2023/07/05 03:46:47;;;;;;;;;3.33;2.00;;;;;16.52;59.24;100889.09;5076851;28;45465;-67
2023/07/05 03:49:12;;;;;;;;;2.67;1.67;;;;;16.48;59.13;100888.63;5077144;27;45490;-67
2023/07/05 03:51:38;;;;;;;;;2.00;1.00;;;;;16.40;59.32;100886.00;5077724;27;45604;-67
2023/07/05 03:54:03;;;;;;;;;4.67;2.00;;;;;16.37;59.30;100872.94;5058855;28;46326;-68
2023/07/05 03:56:29;;;;;;;;;2.00;2.00;;;;;16.48;58.87;100891.31;5077103;27;45253;-68
2023/07/05 03:58:54;;;;;;;;;4.33;2.00;;;;;16.36;59.34;100885.50;5077121;28;45502;-67
2023/07/05 04:01:24;;;;;;;;;4.00;2.00;;;;;16.28;59.42;100871.34;5077538;28;45209;-67
2023/07/05 04:03:59;;;;;;;;;2.00;2.00;;;;;16.29;59.56;100873.00;5076739;27;46651;-67
2023/07/05 04:06:28;;;;;;;;;2.00;2.00;;;;;16.47;59.45;100891.50;5076707;27;45442;-67
2023/07/05 04:08:54;;;;;;;;;1.00;1.00;;;;;16.47;59.62;100908.44;5076896;28;45288;-68
2023/07/05 04:11:20;;;;;;;;;1.00;0.67;;;;;16.34;59.58;100894.75;5077285;27;45422;-68
2023/07/05 04:13:47;;;;;;;;;0.67;0.67;;;;;16.45;59.70;100912.31;5076892;28;45595;-67
2023/07/05 04:16:18;;;;;;;;;2.00;2.00;;;;;16.46;59.76;100916.66;5076667;28;45288;-67
2023/07/05 04:18:45;;;;;;;;;2.00;2.00;;;;;16.47;60.10;100918.34;5076865;28;45311;-67
2023/07/05 04:21:11;;;;;;;;;2.67;2.67;;;;;16.53;59.91;100925.66;5077061;28;45233;-66
2023/07/05 04:23:38;;;;;;;;;3.00;2.00;;;;;16.52;59.79;100927.50;5076657;27;46388;-68
2023/07/05 04:26:09;;;;;;;;;3.00;3.00;;;;;16.46;60.08;100922.88;5058622;28;45468;-66
2023/07/05 04:28:36;;;;;;;;;2.00;2.00;;;;;16.48;60.21;100931.56;5076728;28;45308;-67
2023/07/05 04:31:02;;;;;;;;;2.00;2.00;;;;;15.33;60.35;100748.19;5076635;27;45579;-67
2023/07/05 04:33:28;;;;;;;;;2.67;2.00;;;;;16.45;60.65;100942.66;5076590;28;45666;-66
2023/07/05 04:35:59;;;;;;;;;3.00;3.00;;;;;16.40;61.04;100939.66;5076194;27;45262;-67
2023/07/05 04:38:25;;;;;;;;;8.33;4.33;;;;;16.45;61.23;100941.84;5076424;27;45225;-68
2023/07/05 04:40:51;;;;;;;;;4.67;4.00;;;;;16.45;61.24;100937.31;5076432;28;45474;-67
2023/07/05 04:43:16;;;;;;;;;4.00;3.67;;;;;15.95;61.05;100860.78;5076418;28;45696;-68
2023/07/05 04:45:49;;;;;;;;;5.33;4.00;;;;;16.43;61.46;100928.59;5076099;28;45536;-67
2023/07/05 04:48:14;;;;;;;;;6.00;5.00;;;;;16.48;61.71;100947.69;5076258;28;45513;-67
2023/07/05 04:50:39;;;;;;;;;6.00;4.00;;;;;16.50;61.35;100950.19;5076500;28;45523;-66
2023/07/05 04:53:05;;;;;;;;;8.33;6.67;;;;;16.53;61.33;100942.59;5076349;28;46420;-67
2023/07/05 04:55:30;;;;;;;;;5.00;5.00;;;;;16.57;61.02;100943.06;5077941;28;45304;-66
2023/07/05 04:57:55;;;;;;;;;5.67;4.00;;;;;16.21;61.27;100887.28;5061516;28;45305;-68
2023/07/05 05:00:24;;;;;;;;;4.33;3.33;;;;;16.57;61.24;100945.75;5079753;28;45262;-68
2023/07/05 05:02:49;;;;;;;;;5.00;4.00;;;;;16.29;61.24;100899.84;5079678;27;45861;-67
2023/07/05 05:05:15;;;;;;;;;5.00;4.00;;;;;16.76;60.86;100958.75;5079795;27;45489;-67
2023/07/05 05:07:40;;;;;;;;;5.00;3.67;;;;;16.70;61.13;100973.72;5061771;28;45440;-68
2023/07/05 05:10:06;;;;;;;;;6.33;5.00;;;;;16.72;61.00;100960.97;5079777;27;45344;-68
2023/07/05 05:12:31;;;;;;;;;6.67;4.00;;;;;16.50;61.10;100918.81;5079558;28;45433;-68
2023/07/05 05:14:57;;;;;;;;;5.00;3.33;;;;;16.69;61.21;100961.31;5079542;27;45472;-68
2023/07/05 05:17:22;;;;;;;;;6.00;6.00;;;;;15.97;61.29;100841.84;5078667;28;55407;-67
2023/07/05 05:19:47;;;;;;;;;12.00;5.00;;;;;16.52;61.03;100927.50;5079739;27;45524;-66
2023/07/05 05:22:13;;;;;;;;;5.67;5.67;;;;;16.60;61.18;100927.44;5079515;28;45493;-67
2023/07/05 05:24:38;;;;;;;;;3.00;3.00;;;;;16.79;61.15;100954.88;5059595;28;62335;-68
2023/07/05 05:27:04;;;;;;;;;7.33;4.33;;;;;16.91;60.86;100966.88;5079143;27;45639;-66
2023/07/05 05:29:30;;;;;;;;;5.33;4.00;;;;;16.82;60.58;100952.69;5079636;28;45309;-67
2023/07/05 05:31:56;;;;;;;;;3.00;3.00;;;;;16.90;60.69;100967.88;5060885;28;48126;-68
2023/07/05 05:34:24;;;;;;;;;4.33;3.33;;;;;16.98;60.38;100970.50;5079274;28;45323;-67
2023/07/05 05:36:50;;;;;;;;;5.00;5.00;;;;;17.03;60.44;100968.97;5079081;27;45463;-67
2023/07/05 05:39:15;;;;;;;;;6.33;3.33;;;;;17.15;60.11;100971.19;5060318;28;52057;-67
2023/07/05 05:41:41;;;;;;;;;4.33;4.00;;;;;17.13;59.69;100965.16;5078882;28;47435;-67
2023/07/05 05:44:06;;;;;;;;;7.00;5.33;;;;;16.66;59.73;100888.34;5060659;28;45394;-67
2023/07/05 05:46:31;;;;;;;;;5.67;5.00;;;;;17.22;59.81;100969.44;5079208;27;45217;-69
2023/07/05 05:48:57;;;;;;;;;5.00;4.33;;;;;17.42;59.78;100977.81;5060937;28;45348;-69
2023/07/05 05:51:23;;;;;;;;;4.33;3.33;;;;;17.44;59.33;100965.06;5060564;28;48303;-68
2023/07/05 05:53:48;;;;;;;;;5.00;2.67;;;;;17.63;59.11;100981.50;5078594;28;45300;-69
2023/07/05 05:56:13;;;;;;;;;4.33;3.33;;;;;17.79;58.47;100955.44;5078744;28;45272;-68
2023/07/05 05:58:39;;;;;;;;;5.33;5.33;;;;;18.23;57.07;100988.56;5079128;27;45147;-68
2023/07/05 06:01:05;;;;;;;;;4.33;4.00;;;;;18.42;56.58;100987.13;5078783;28;46518;-69
2023/07/05 06:03:30;;;;;;;;;3.33;3.00;;;;;18.50;56.35;100984.31;5079037;27;45354;-69
2023/07/05 06:05:56;;;;;;;;;3.00;3.00;;;;;18.74;56.00;100976.94;5060515;28;45493;-68
2023/07/05 06:08:22;;;;;;;;;3.33;3.33;;;;;19.45;54.76;100984.00;5078703;27;45430;-68
2023/07/05 06:10:57;;;;;;;;;4.00;4.00;;;;;19.78;53.44;101004.16;5078356;27;45685;-67
2023/07/05 06:13:24;;;;;;;;;6.33;5.33;;;;;19.98;53.05;100983.50;5078122;28;45344;-74
2023/07/05 06:15:58;;;;;;;;;4.33;3.00;;;;;20.39;52.16;100997.00;5070976;28;45655;-69
2023/07/05 06:18:26;;;;;;;;;8.00;5.33;;;;;20.49;51.44;100993.97;5077003;28;45519;-71
2023/07/05 06:20:51;;;;;;;;;7.33;6.00;;;;;20.48;51.66;100995.00;5078455;27;45833;-69
2023/07/05 06:23:17;;;;;;;;;4.00;3.00;;;;;20.58;51.24;101001.66;5057800;28;45270;-71
2023/07/05 06:25:48;;;;;;;;;4.00;4.00;;;;;21.06;50.02;100995.34;5075496;27;45296;-68
2023/07/05 06:28:18;;;;;;;;;5.67;5.33;;;;;21.86;49.46;101002.38;5070807;27;45443;-69
2023/07/05 06:30:44;;;;;;;;;5.00;5.00;;;;;22.67;46.36;100989.16;5077293;28;45740;-69
2023/07/05 06:33:10;;;;;;;;;3.00;2.00;;;;;23.01;45.82;100987.91;5076901;27;45339;-67
2023/07/05 06:35:36;;;;;;;;;3.33;3.33;;;;;23.44;45.57;100997.19;5077788;28;45513;-68
2023/07/05 06:38:01;;;;;;;;;19.33;18.00;;;;;23.89;44.20;100993.22;5077605;27;45380;-69
2023/07/05 06:40:27;;;;;;;;;4.00;4.00;;;;;24.47;42.72;100992.75;5077170;27;46416;-68
2023/07/05 06:42:52;;;;;;;;;14.00;13.67;;;;;25.18;41.22;101005.53;5058968;28;45454;-71
2023/07/05 06:45:18;;;;;;;;;3.67;3.67;;;;;25.20;40.55;100988.97;5078089;28;45325;-70
2023/07/05 06:47:45;;;;;;;;;10.33;9.00;;;;;25.28;40.98;100999.53;5059731;28;45429;-68
2023/07/05 06:50:12;;;;;;;;;6.00;4.00;;;;;25.26;40.59;101003.56;5077732;28;45828;-71
2023/07/05 06:52:37;;;;;;;;;6.00;4.00;;;;;25.06;41.01;100969.34;5059161;28;45671;-69
2023/07/05 06:55:03;;;;;;;;;3.67;3.67;;;;;24.94;40.50;101024.72;5077717;28;45258;-69
2023/07/05 06:57:28;;;;;;;;;4.33;3.00;;;;;24.93;40.99;101023.91;5077547;27;45411;-68
2023/07/05 06:59:53;;;;;;;;;3.00;3.00;;;;;24.98;40.49;101028.63;5077088;28;45475;-71
2023/07/05 07:02:19;;;;;;;;;5.67;3.00;;;;;24.78;40.58;101034.34;5077423;27;45478;-69
2023/07/05 07:04:44;;;;;;;;;3.33;3.33;;;;;24.56;40.79;101040.28;5077785;28;45554;-68
2023/07/05 07:07:11;;;;;;;;;9.33;6.33;;;;;24.48;41.68;101051.50;5077343;27;45496;-69
2023/07/05 07:09:36;;;;;;;;;7.00;4.00;;;;;24.27;41.73;101041.06;5075832;27;45636;-70
2023/07/05 07:12:02;;;;;;;;;5.33;4.67;;;;;24.06;42.32;101033.38;5076708;27;45459;-68
2023/07/05 07:14:28;;;;;;;;;4.67;3.33;;;;;24.13;42.06;101050.41;5077195;28;45418;-68
2023/07/05 07:16:54;;;;;;;;;5.67;4.67;;;;;24.00;41.91;101045.09;5077298;28;45152;-69
2023/07/05 07:19:19;;;;;;;;;5.33;3.33;;;;;24.06;41.66;101065.97;5076874;27;46020;-71
2023/07/05 07:21:44;;;;;;;;;3.00;3.00;;;;;23.37;41.99;100998.06;5077028;28;45430;-68
2023/07/05 07:24:10;;;;;;;;;4.33;3.00;;;;;23.62;42.36;101055.06;5058894;27;45426;-68
2023/07/05 07:26:37;;;;;;;;;2.00;2.00;;;;;23.52;42.33;101002.31;5059010;28;45572;-69
2023/07/05 07:29:03;;;;;;;;;4.33;3.33;;;;;23.84;41.85;101020.22;5059441;28;46417;-69
2023/07/05 07:31:30;;;;;;;;;5.67;4.33;;;;;24.07;41.84;101062.19;5077270;28;45292;-67
2023/07/05 07:33:57;;;;;;;;;3.00;3.00;;;;;23.92;42.18;101063.38;5058693;28;45558;-69
2023/07/05 07:36:25;;;;;;;;;5.00;3.00;;;;;23.79;42.67;101055.34;5077226;27;45304;-69
2023/07/05 07:38:52;;;;;;;;;1.67;1.67;;;;;23.64;42.23;101014.16;5073246;27;46272;-69
2023/07/05 07:41:24;;;;;;;;;4.00;4.00;;;;;23.75;42.46;101039.72;5076918;28;45477;-70
2023/07/05 07:43:51;;;;;;;;;1.67;1.33;;;;;23.94;41.99;101074.84;5077085;27;45550;-70
2023/07/05 07:46:19;;;;;;;;;4.00;3.00;;;;;23.98;41.82;101081.47;5058359;28;45348;-69
2023/07/05 07:48:47;;;;;;;;;2.33;1.67;;;;;23.92;42.24;101090.53;5058231;28;48738;-69
2023/07/05 07:51:12;;;;;;;;;2.33;2.00;;;;;23.90;42.33;101095.34;5076701;28;45579;-68
2023/07/05 07:53:37;;;;;;;;;4.00;3.67;;;;;23.66;42.48;101093.47;5057892;28;45594;-69
2023/07/05 07:56:14;;;;;;;;;3.67;3.00;;;;;23.91;42.72;101080.72;5076695;28;45485;-71
2023/07/05 07:58:41;;;;;;;;;6.33;3.33;;;;;23.72;42.09;101076.28;5057232;28;46481;-70
2023/07/05 08:01:24;;;;;;;;;4.67;4.00;;;;;23.61;42.20;101096.00;5076568;28;45322;-68
2023/07/05 08:03:49;;;;;;;;;4.33;3.33;;;;;23.55;42.79;101102.28;5071424;27;45452;-69
2023/07/05 08:06:16;;;;;;;;;8.00;7.00;;;;;23.41;43.26;101084.44;5088639;27;45427;-69
2023/07/05 08:08:42;;;;;;;;;4.00;3.00;;;;;23.24;43.22;101093.13;5079185;27;46061;-69
2023/07/05 08:11:09;;;;;;;;;5.67;3.00;;;;;23.11;43.90;101095.09;5056918;28;45360;-68
2023/07/05 08:13:36;;;;;;;;;8.00;4.33;;;;;23.09;43.76;101080.91;5076085;27;45205;-68
2023/07/05 08:16:02;;;;;;;;;5.00;5.00;;;;;23.23;44.26;101087.94;5086445;27;45437;-70
2023/07/05 08:18:36;;;;;;;;;3.00;3.00;;;;;23.36;43.75;101083.22;5076594;27;45710;-69
2023/07/05 08:21:02;;;;;;;;;3.67;3.67;;;;;24.19;42.55;101069.34;5045196;28;45561;-68
2023/07/05 08:23:28;;;;;;;;;1.67;1.67;;;;;25.16;40.46;101072.97;5068942;27;45736;-69
2023/07/05 08:25:56;;;;;;;;;2.00;2.00;;;;;25.95;38.85;101059.13;5072435;28;45430;-67
2023/07/05 08:28:22;;;;;;;;;4.00;3.00;;;;;26.28;38.03;101094.75;5072882;27;46422;-71
2023/07/05 08:30:59;;;;;;;;;3.00;3.00;;;;;25.88;37.77;101069.31;5080092;27;45284;-72
2023/07/05 08:33:26;;;;;;;;;3.33;2.00;;;;;25.72;38.41;101098.91;5078762;27;45531;-70
2023/07/05 08:36:04;;;;;;;;;5.00;3.67;;;;;25.68;39.04;101103.16;5078597;27;45399;-73
2023/07/05 08:38:30;;;;;;;;;4.00;3.00;;;;;25.95;37.92;101102.72;5052176;27;45661;-68
2023/07/05 08:41:05;;;;;;;;;3.67;3.67;;;;;26.01;37.91;101101.75;5089467;27;45425;-69
2023/07/05 08:43:43;;;;;;;;;3.00;3.00;;;;;25.66;37.35;101094.38;5074746;27;45444;-68
2023/07/05 08:46:12;;;;;;;;;2.33;2.33;;;;;25.59;38.04;101096.38;5072725;27;45310;-69
2023/07/05 08:48:37;;;;;;;;;3.67;3.67;;;;;25.55;37.88;101116.97;5058755;27;45505;-71
2023/07/05 08:51:04;;;;;;;;;5.33;4.33;;;;;25.24;38.04;101073.72;5060698;28;45545;-70
2023/07/05 08:53:38;;;;;;;;;3.00;3.00;;;;;25.04;38.87;101090.31;5077871;27;45347;-72
2023/07/05 08:56:09;;;;;;;;;3.00;3.00;;;;;24.90;39.03;101118.72;5077994;27;45826;-69
2023/07/05 08:58:56;;;;;;;;;2.67;2.67;;;;;24.59;39.11;101120.56;5059250;27;47864;-69
2023/07/05 09:01:29;;;;;;;;;5.00;4.33;;;;;24.27;40.25;101128.00;5072361;27;45688;-72
2023/07/05 09:03:56;;;;;;;;;3.33;3.33;;;;;23.88;40.59;101108.31;5078304;27;45649;-70
2023/07/05 09:06:32;;;;;;;;;1.67;1.67;;;;;23.38;41.44;101064.00;5060574;28;45376;-68
2023/07/05 09:09:22;;;;;;;;;30.33;29.33;;;;;23.66;41.81;101128.78;5077033;27;46472;-69
2023/07/05 09:12:00;;;;;;;;;3.00;3.00;;;;;23.51;42.00;101122.78;5073546;28;45273;-68
2023/07/05 09:14:44;;;;;;;;;4.67;2.67;;;;;23.46;42.26;101112.59;5077896;27;45599;-69
2023/07/05 09:17:20;;;;;;;;;2.00;2.00;;;;;23.56;41.83;101122.97;5077362;27;45415;-69
2023/07/05 09:20:05;;;;;;;;;4.00;2.33;;;;;23.49;41.71;101103.19;5070497;27;46722;-68
2023/07/05 09:22:36;;;;;;;;;3.00;3.00;;;;;23.66;41.76;101120.63;5047042;28;45530;-69
2023/07/05 09:25:05;;;;;;;;;5.00;2.33;;;;;23.66;42.73;101121.47;5075899;27;45494;-71
2023/07/05 09:27:40;;;;;;;;;3.00;3.00;;;;;23.57;41.98;101083.94;5070782;28;45415;-69
2023/07/05 09:30:20;;;;;;;;;4.00;3.00;;;;;23.75;41.89;101122.00;5089552;27;46505;-68
2023/07/05 09:33:00;;;;;;;;;3.33;3.33;;;;;23.97;41.37;101106.97;5078031;27;45359;-68
2023/07/05 09:35:28;;;;;;;;;4.33;3.33;;;;;24.41;41.14;101112.41;5060061;28;45533;-68
2023/07/05 09:38:18;;;;;;;;;3.67;3.67;;;;;26.18;38.18;101110.03;5077273;28;45575;-69
2023/07/05 09:40:49;;;;;;;;;2.33;1.00;;;;;27.02;36.57;101119.50;5074938;27;45988;-68
2023/07/05 09:43:28;;;;;;;;;3.00;3.00;;;;;27.02;35.94;101113.22;5077508;27;45464;-69
2023/07/05 09:45:54;;;;;;;;;4.00;3.00;;;;;26.82;36.14;101117.16;5078886;27;45606;-70
2023/07/05 09:48:20;;;;;;;;;2.33;2.33;;;;;26.61;36.18;101112.38;5076099;27;45596;-69
2023/07/05 09:50:51;;;;;;;;;4.00;4.00;;;;;27.31;36.28;101128.50;5060110;28;47444;-69
2023/07/05 09:53:40;;;;;;;;;4.33;3.67;;;;;28.77;32.94;101120.94;5076809;27;45307;-79
2023/07/05 09:56:10;;;;;;;;;2.33;2.33;;;;;30.20;30.54;101108.56;5059805;28;45548;-70
2023/07/05 09:58:37;;;;;;;;;2.67;2.33;;;;;31.21;30.29;101132.91;5058152;28;45584;-72
2023/07/05 10:01:04;;;;;;;;;4.00;3.00;;;;;31.99;28.18;101133.50;5078511;27;45851;-70
2023/07/05 10:03:36;;;;;;;;;5.00;4.00;;;;;32.27;27.35;101107.34;5076880;27;45322;-70
2023/07/05 10:06:07;;;;;;;;;4.33;4.00;;;;;31.54;27.57;101087.59;5078820;27;45464;-72
2023/07/05 10:08:43;;;;;;;;;2.33;2.33;;;;;30.81;28.57;101142.63;5077928;27;45366;-68
2023/07/05 10:11:19;;;;;;;;;5.00;3.00;;;;;30.39;29.36;101120.75;5072297;27;46235;-69
2023/07/05 10:13:45;;;;;;;;;2.00;2.00;;;;;29.86;30.02;101127.25;5069823;27;45793;-69
2023/07/05 10:16:11;;;;;;;;;3.00;3.00;;;;;29.30;30.68;101129.47;5087991;27;45490;-69
2023/07/05 10:18:40;;;;;;;;;4.00;4.00;;;;;28.71;31.26;101113.75;5076116;27;45391;-70
2023/07/05 10:21:17;;;;;;;;;4.33;2.00;;;;;28.65;31.59;101133.09;5076711;28;46664;-68
2023/07/05 10:23:44;;;;;;;;;4.00;4.00;;;;;28.24;32.55;101123.50;5077047;27;45441;-68
2023/07/05 10:26:11;;;;;;;;;2.00;1.67;;;;;28.07;32.24;101132.56;5078403;28;45440;-69
2023/07/05 10:28:40;;;;;;;;;5.00;4.00;;;;;27.72;33.12;101112.84;5068910;27;45504;-68
2023/07/05 10:31:23;;;;;;;;;3.33;2.00;;;;;27.68;33.16;101128.94;5074824;28;46182;-69
2023/07/05 10:33:49;;;;;;;;;5.00;4.33;;;;;27.49;33.75;101138.41;5059686;28;46158;-69
2023/07/05 10:36:15;;;;;;;;;5.00;3.67;;;;;27.50;34.04;101140.06;5055920;28;45609;-69
2023/07/05 10:38:46;;;;;;;;;6.00;6.00;;;;;27.41;34.22;101142.34;5069058;27;45691;-70
2023/07/05 10:41:16;;;;;;;;;3.00;3.00;;;;;27.11;34.08;101149.97;5056288;28;47570;-68
2023/07/05 10:43:45;;;;;;;;;4.00;3.00;;;;;26.77;34.80;101130.72;5072665;27;45319;-69
2023/07/05 10:46:10;;;;;;;;;5.00;4.00;;;;;26.70;34.80;101137.38;5069182;27;45558;-68
2023/07/05 10:48:42;;;;;;;;;3.00;3.00;;;;;26.64;34.84;101117.38;5076589;27;45393;-70
2023/07/05 10:51:21;;;;;;;;;5.00;3.00;;;;;26.41;34.38;101079.22;5056365;28;46407;-68
2023/07/05 10:54:18;;;;;;;;;2.00;2.00;;;;;26.63;35.03;101130.19;5074647;27;45695;-70
2023/07/05 10:56:45;;;;;;;;;4.00;3.33;;;;;26.34;35.75;101101.13;5070505;27;45527;-69
2023/07/05 10:59:53;;;;;;;;;3.67;3.00;;;;;26.53;35.35;101142.75;5070710;27;45607;-71
2023/07/05 11:02:29;;;;;;;;;2.33;2.33;;;;;26.60;35.52;101148.91;5047953;28;46626;-70
2023/07/05 11:04:57;;;;;;;;;8.67;8.67;;;;;26.57;34.82;101122.94;5077087;27;45299;-71
2023/07/05 11:07:23;;;;;;;;;3.33;3.33;;;;;26.49;34.40;101115.13;5075603;28;45574;-70
2023/07/05 11:09:49;;;;;;;;;4.00;4.00;;;;;26.52;34.98;101138.38;5077289;27;45387;-70
2023/07/05 11:12:30;;;;;;;;;11.67;10.67;;;;;26.53;34.12;101135.41;5074882;27;45984;-69
2023/07/05 11:14:57;;;;;;;;;4.00;3.00;;;;;26.40;34.08;101113.00;5073840;27;45518;-70
2023/07/05 11:17:33;;;;;;;;;2.67;2.67;;;;;26.47;34.47;101117.28;5076537;27;45529;-70
2023/07/05 11:19:59;;;;;;;;;3.00;3.00;;;;;26.25;35.43;101130.69;5081881;27;45507;-68
2023/07/05 11:22:45;;;;;;;;;2.00;2.00;;;;;26.10;35.49;101124.88;5056385;28;49033;-69
2023/07/05 11:25:15;;;;;;;;;4.33;4.33;;;;;26.18;34.48;101121.78;5058670;28;45415;-68
2023/07/05 11:27:50;;;;;;;;;1.33;1.33;;;;;26.03;34.59;101077.84;5058777;28;45474;-70
2023/07/05 11:30:44;;;;;;;;;3.00;3.00;;;;;26.30;34.82;101128.06;5077712;27;45537;-68
2023/07/05 11:33:10;;;;;;;;;2.00;2.00;;;;;26.12;35.19;101120.00;5058729;28;48251;-69